createdAt,value
2022-08-18T00:33:25.170Z,90.70
2022-08-18T01:06:32.448Z,89.20
2022-08-18T01:19:42.057Z,94.20
2022-08-18T01:24:58.090Z,94.70
2022-08-18T01:27:32.098Z,95.40
2022-08-18T01:30:10.519Z,95.80
2022-08-18T01:32:42.151Z,95.90
2022-08-18T01:35:14.517Z,99.90
2022-08-18T01:41:22.835Z,97.40
2022-08-18T01:45:42.087Z,99.90
2022-08-18T02:03:37.121Z,99.90
2022-08-18T02:06:09.838Z,99.90
2022-08-18T02:08:42.810Z,99.90
2022-08-18T02:11:19.215Z,99.90
2022-08-18T02:16:19.803Z,99.90
2022-08-18T02:21:23.320Z,99.90
2022-08-18T02:23:54.174Z,99.90
2022-08-18T02:26:26.888Z,99.90
2022-08-18T02:28:56.844Z,99.90
2022-08-18T02:31:28.145Z,99.90
2022-08-18T02:36:29.614Z,99.90
2022-08-18T02:39:00.203Z,99.90
2022-08-18T02:41:33.161Z,99.90
2022-08-18T02:44:03.213Z,99.90
2022-08-18T02:46:33.364Z,99.90
2022-08-18T02:49:03.766Z,99.90
2022-08-18T02:51:33.969Z,99.90
2022-08-18T02:54:05.079Z,99.90
2022-08-18T02:56:42.085Z,99.90
2022-08-18T02:59:14.328Z,99.90
2022-08-18T03:01:46.923Z,99.90
2022-08-18T03:04:23.988Z,99.90
2022-08-18T03:06:57.396Z,99.90
2022-08-18T03:12:00.998Z,99.90
2022-08-18T03:14:31.953Z,99.90
2022-08-18T03:17:02.558Z,99.90
2022-08-18T03:19:32.840Z,99.90
2022-08-18T03:22:27.344Z,99.90
2022-08-18T03:24:56.065Z,99.90
2022-08-18T03:27:29.273Z,99.90
2022-08-18T03:32:30.574Z,99.90
2022-08-18T03:35:00.850Z,99.90
2022-08-18T03:37:30.862Z,99.90
2022-08-18T03:40:00.825Z,99.90
2022-08-18T03:42:33.425Z,99.90
2022-08-18T03:45:12.513Z,99.90
2022-08-18T03:47:51.946Z,99.90
2022-08-18T03:50:25.563Z,99.90
2022-08-18T03:55:30.692Z,99.90
2022-08-18T03:58:06.124Z,99.90
2022-08-18T04:00:36.328Z,99.90
2022-08-18T04:05:41.372Z,99.90
2022-08-18T04:08:11.350Z,99.90
2022-08-18T04:10:41.307Z,99.90
2022-08-18T04:13:13.934Z,99.90
2022-08-18T04:15:43.859Z,99.90
2022-08-18T04:18:13.880Z,99.90
2022-08-18T04:20:59.890Z,99.90
2022-08-18T04:23:29.973Z,99.90
2022-08-18T04:26:11.251Z,99.90
2022-08-18T04:28:51.770Z,99.90
2022-08-18T04:33:54.457Z,99.90
2022-08-18T04:36:24.417Z,99.90
2022-08-18T04:38:54.400Z,99.90
2022-08-18T04:41:27.800Z,99.90
2022-08-18T04:44:02.387Z,99.90
2022-08-18T04:46:33.788Z,99.90
2022-08-18T04:49:03.903Z,99.90
2022-08-18T04:52:34.361Z,99.90
2022-08-18T04:54:24.909Z,99.90
2022-08-18T04:56:55.158Z,99.90
2022-08-18T04:59:28.112Z,99.90
2022-08-18T05:04:29.204Z,99.90
2022-08-18T05:06:59.277Z,99.90
2022-08-18T05:09:29.380Z,99.90
2022-08-18T05:11:59.357Z,99.90
2022-08-18T05:14:32.070Z,99.90
2022-08-18T05:17:02.437Z,99.90
2022-08-18T05:19:35.676Z,99.90
2022-08-18T05:22:13.971Z,99.90
2022-08-18T05:29:51.428Z,99.90
2022-08-18T05:32:37.297Z,99.90
2022-08-18T05:35:15.624Z,99.90
2022-08-18T05:37:56.537Z,99.90
2022-08-18T05:40:28.813Z,99.90
2022-08-18T05:43:02.476Z,99.90
2022-08-18T05:45:36.061Z,99.90
2022-08-18T05:50:40.025Z,99.90
2022-08-18T05:53:14.627Z,99.90
2022-08-18T05:56:03.784Z,99.90
2022-08-18T05:58:37.066Z,99.90
2022-08-18T06:01:17.585Z,99.90
2022-08-18T06:03:53.014Z,99.90
2022-08-18T06:06:27.966Z,99.90
2022-08-18T06:09:13.427Z,99.90
2022-08-18T06:14:14.690Z,99.90
2022-08-18T06:16:57.071Z,99.90
2022-08-18T06:19:49.052Z,99.90
2022-08-18T06:22:29.812Z,99.90
2022-08-18T06:25:09.020Z,99.90
2022-08-18T06:27:47.652Z,99.90
2022-08-18T06:30:21.237Z,99.90
2022-08-18T06:33:12.009Z,99.90
2022-08-18T06:35:48.569Z,99.90
2022-08-18T06:38:45.874Z,99.90
2022-08-18T06:41:41.652Z,99.90
2022-08-18T06:44:12.090Z,99.90
2022-08-18T06:46:49.517Z,99.90
2022-08-18T06:49:39.819Z,99.90
2022-08-18T06:52:24.710Z,99.90
2022-08-18T06:54:56.362Z,99.90
2022-08-18T06:57:30.503Z,99.90
2022-08-18T07:00:03.381Z,99.90
2022-08-18T07:02:46.172Z,99.90
2022-08-18T07:05:27.973Z,99.90
2022-08-18T07:08:18.412Z,99.90
2022-08-18T07:10:50.703Z,99.90
2022-08-18T07:13:25.548Z,99.90
2022-08-18T07:15:57.427Z,99.90
2022-08-18T07:18:30.614Z,99.90
2022-08-18T07:21:04.410Z,99.90
2022-08-18T07:23:38.354Z,99.90
2022-08-18T07:26:15.762Z,99.90
2022-08-18T07:28:49.214Z,99.90
2022-08-18T07:31:33.989Z,99.90
2022-08-18T07:34:08.455Z,99.90
2022-08-18T07:36:47.533Z,99.90
2022-08-18T07:39:25.044Z,99.90
2022-08-18T07:42:00.385Z,99.90
2022-08-18T07:44:43.889Z,99.90
2022-08-18T07:47:20.674Z,99.90
2022-08-18T07:50:15.753Z,99.90
2022-08-18T07:52:48.854Z,99.90
2022-08-18T07:55:56.834Z,99.90
2022-08-18T07:58:32.064Z,99.90
2022-08-18T08:01:07.146Z,99.90
2022-08-18T08:03:46.399Z,99.90
2022-08-18T08:06:23.829Z,99.90
2022-08-18T08:09:07.361Z,99.90
2022-08-18T08:11:46.729Z,99.90
2022-08-18T08:17:07.243Z,99.90
2022-08-18T08:20:00.595Z,99.90
2022-08-18T08:22:37.680Z,99.90
2022-08-18T08:25:42.585Z,99.90
2022-08-18T08:28:18.495Z,99.90
2022-08-18T08:31:09.021Z,99.90
2022-08-18T08:33:48.470Z,99.90
2022-08-18T08:36:24.155Z,99.90
2022-08-18T08:38:58.723Z,99.90
2022-08-18T08:41:39.549Z,99.90
2022-08-18T08:46:50.118Z,99.90
2022-08-18T08:49:35.294Z,99.90
2022-08-18T08:52:12.633Z,99.90
2022-08-18T08:54:49.547Z,99.90
2022-08-18T08:57:24.212Z,99.90
2022-08-18T08:59:56.806Z,99.90
2022-08-18T09:02:53.841Z,99.70
2022-08-18T09:05:28.350Z,99.90
2022-08-18T09:13:50.737Z,98.20
2022-08-18T09:16:36.700Z,98.80
2022-08-18T09:19:37.362Z,97.80
2022-08-18T09:22:13.806Z,99.90
2022-08-18T09:24:49.401Z,99.90
2022-08-18T09:28:08.864Z,97.80
2022-08-18T09:30:49.118Z,99.90
2022-08-18T09:33:26.270Z,99.90
2022-08-18T09:36:30.407Z,99.90
2022-08-18T09:39:23.841Z,99.90
2022-08-18T09:41:57.977Z,99.90
2022-08-18T09:44:58.218Z,99.90
2022-08-18T09:47:58.320Z,99.90
2022-08-18T09:53:37.235Z,93.50
2022-08-18T09:56:08.864Z,96.20
2022-08-18T09:58:55.876Z,99.30
2022-08-18T10:01:52.540Z,91.20
2022-08-18T10:04:31.575Z,96.70
2022-08-18T10:10:59.339Z,95.00
2022-08-18T10:13:26.693Z,81.30
2022-08-18T10:19:09.359Z,95.60
2022-08-18T10:22:04.297Z,95.70
2022-08-18T10:24:46.621Z,95.50
2022-08-18T10:27:49.195Z,89.90
2022-08-18T10:30:57.610Z,95.40
2022-08-18T10:34:05.504Z,86.10
2022-08-18T10:36:54.136Z,95.30
2022-08-18T10:39:47.309Z,92.20
2022-08-18T10:42:30.991Z,94.80
2022-08-18T10:45:24.609Z,85.30
2022-08-18T10:48:17.332Z,84.90
2022-08-18T10:50:53.488Z,87.10
2022-08-18T10:53:39.051Z,85.50
2022-08-18T10:56:31.103Z,84.60
2022-08-18T10:59:17.080Z,82.40
2022-08-18T11:02:12.768Z,82.60
2022-08-18T11:13:24.067Z,78.20
2022-08-18T11:16:10.353Z,79.50
2022-08-18T11:44:57.857Z,74.70
2022-08-18T12:12:18.293Z,73.10
2022-08-18T12:35:44.700Z,71.90
2022-08-18T12:38:17.899Z,71.10
2022-08-18T12:50:59.832Z,70.20
2022-08-18T12:53:38.381Z,70.00
2022-08-18T12:58:56.730Z,70.00
2022-08-18T13:12:16.257Z,67.80
2022-08-18T13:27:44.999Z,57.90
2022-08-18T13:35:55.911Z,57.90
2022-08-18T13:41:01.175Z,57.60
2022-08-18T13:43:36.606Z,56.00
2022-08-18T13:46:11.441Z,55.50
2022-08-18T13:48:42.035Z,55.00
2022-08-18T13:59:09.458Z,55.40
2022-08-18T14:01:44.588Z,69.30
2022-08-18T14:12:21.612Z,55.60
2022-08-18T14:20:10.739Z,54.70
2022-08-18T14:25:44.045Z,54.60
2022-08-18T14:36:17.112Z,55.40
2022-08-18T14:59:37.912Z,69.80
2022-08-18T15:02:13.018Z,72.30
2022-08-18T15:04:55.845Z,64.00
2022-08-18T15:07:28.157Z,72.40
2022-08-18T15:20:29.505Z,59.10
2022-08-18T15:41:43.814Z,61.20
2022-08-18T15:44:17.876Z,60.80
2022-08-18T15:59:33.179Z,61.00
2022-08-18T16:02:11.479Z,76.70
2022-08-18T16:12:25.309Z,64.60
2022-08-18T16:14:57.882Z,62.50
2022-08-18T16:20:01.901Z,69.10
2022-08-18T16:30:08.353Z,63.20
2022-08-18T16:40:11.518Z,68.20
2022-08-18T17:08:40.882Z,82.50
2022-08-18T17:31:30.313Z,70.20
2022-08-18T17:39:16.184Z,70.50
2022-08-18T17:50:04.239Z,71.80
2022-08-18T17:52:53.352Z,72.40
2022-08-18T18:00:29.465Z,88.00
2022-08-18T18:08:03.253Z,72.90
2022-08-18T18:11:02.361Z,73.20
2022-08-18T18:18:43.260Z,73.60
2022-08-18T18:21:23.289Z,73.70
2022-08-18T18:24:23.686Z,74.10
2022-08-18T18:29:33.335Z,75.20
2022-08-18T18:32:08.060Z,75.70
2022-08-18T18:34:46.256Z,75.80
2022-08-18T18:37:27.497Z,75.70
2022-08-18T18:42:31.961Z,76.50
2022-08-18T18:45:09.428Z,76.70
2022-08-18T18:47:50.375Z,76.50
2022-08-18T18:53:09.174Z,77.20
2022-08-18T18:55:48.702Z,78.10
2022-08-18T18:58:28.582Z,79.70
2022-08-18T19:13:58.100Z,84.80
2022-08-18T19:16:33.809Z,85.20
2022-08-18T19:19:36.709Z,85.90
2022-08-18T19:22:12.318Z,86.10
2022-08-18T19:32:34.096Z,87.20
2022-08-18T19:40:30.432Z,87.90
2022-08-18T19:45:39.178Z,87.60
2022-08-18T19:59:18.624Z,85.70
2022-08-18T20:01:58.721Z,85.20
2022-08-18T20:10:06.272Z,85.90
2022-08-18T20:12:56.695Z,86.30
2022-08-18T20:15:31.125Z,83.60
2022-08-18T20:18:21.094Z,94.10
2022-08-18T20:21:20.986Z,86.90
2022-08-18T20:24:02.400Z,87.50
2022-08-18T20:26:51.821Z,87.30
2022-08-18T20:29:44.607Z,87.30
2022-08-18T20:32:24.493Z,88.00
2022-08-18T20:37:28.554Z,88.60
2022-08-18T20:42:51.558Z,89.90
2022-08-18T20:45:32.233Z,90.30
2022-08-18T20:48:23.814Z,95.20
2022-08-18T20:51:07.009Z,91.00
2022-08-18T20:54:13.958Z,98.50
2022-08-18T20:56:50.635Z,91.30
2022-08-18T20:59:24.877Z,98.80
2022-08-18T21:02:07.700Z,99.90
2022-08-18T21:04:51.163Z,99.90
2022-08-18T21:07:36.511Z,94.80
2022-08-18T21:10:14.707Z,99.90
2022-08-18T21:12:54.407Z,98.80
2022-08-18T21:15:29.137Z,99.90
2022-08-18T21:18:07.118Z,99.90
2022-08-18T21:20:37.701Z,99.90
2022-08-18T21:23:11.866Z,99.90
2022-08-18T21:25:54.433Z,99.90
2022-08-18T21:28:25.985Z,99.90
2022-08-18T21:31:43.230Z,99.90
2022-08-18T21:33:56.585Z,99.90
2022-08-18T21:36:31.727Z,99.90
2022-08-18T21:39:05.939Z,99.90
2022-08-18T21:41:42.355Z,99.90
2022-08-18T21:44:18.492Z,99.90
2022-08-18T21:46:49.296Z,99.90
2022-08-18T21:49:33.856Z,99.90
2022-08-18T21:54:36.181Z,99.90
2022-08-18T21:57:23.828Z,99.90
2022-08-18T22:00:23.357Z,99.90
2022-08-18T22:02:54.602Z,99.90
2022-08-18T22:05:58.377Z,99.90
2022-08-18T22:08:26.853Z,99.90
2022-08-18T22:11:38.274Z,99.90
2022-08-18T22:14:35.773Z,99.90
2022-08-18T22:17:35.041Z,99.90
2022-08-18T22:20:35.204Z,99.90
2022-08-18T22:23:41.723Z,99.90
2022-08-18T22:28:58.763Z,99.90
2022-08-18T22:31:31.102Z,99.90
2022-08-18T22:34:07.338Z,99.90
2022-08-18T22:36:43.300Z,99.90
2022-08-18T22:39:26.911Z,99.90
2022-08-18T22:54:33.358Z,99.90
2022-08-18T23:45:21.941Z,99.90
2022-08-18T23:52:59.367Z,99.90
2022-08-18T23:55:33.801Z,99.90
2022-08-18T23:58:03.976Z,99.90
